createdAt,value
2023-03-21T00:05:28.344Z,23.08
2023-03-21T00:11:30.551Z,18.63
2023-03-21T00:17:34.144Z,24.60
2023-03-21T00:23:36.672Z,22.53
2023-03-21T00:29:38.699Z,26.85
2023-03-21T00:36:02.568Z,25.75
2023-03-21T00:42:06.844Z,23.35
2023-03-21T00:48:09.626Z,26.45
2023-03-21T00:54:13.542Z,23.85
2023-03-21T01:00:20.604Z,27.67
2023-03-21T01:06:22.480Z,28.75
2023-03-21T01:12:24.542Z,30.13
2023-03-21T01:18:29.607Z,26.67
2023-03-21T01:24:32.462Z,30.60
2023-03-21T01:30:41.673Z,35.10
2023-03-21T01:36:43.865Z,41.63
2023-03-21T01:42:47.027Z,35.65
2023-03-21T01:56:30.723Z,48.05
2023-03-21T02:02:32.529Z,37.33
2023-03-21T02:08:39.521Z,45.47
2023-03-21T02:14:43.666Z,40.33
2023-03-21T02:20:51.163Z,41.63
2023-03-21T02:27:04.839Z,39.28
2023-03-21T02:33:15.043Z,43.80
2023-03-21T02:39:40.377Z,44.72
2023-03-21T02:45:45.565Z,39.40
2023-03-21T02:51:49.614Z,46.63
2023-03-21T02:57:53.839Z,46.13
2023-03-21T03:03:55.857Z,46.33
2023-03-21T03:10:12.563Z,47.92
2023-03-21T03:16:37.192Z,46.03
2023-03-21T03:22:46.026Z,55.60
2023-03-21T03:28:59.356Z,60.50
2023-03-21T03:35:02.558Z,50.85
2023-03-21T03:41:12.683Z,58.10
2023-03-21T03:47:36.206Z,55.10
2023-03-21T03:54:00.843Z,58.85
2023-03-21T04:00:06.373Z,60.22
2023-03-21T04:06:08.370Z,52.28
2023-03-21T04:12:10.555Z,64.65
2023-03-21T04:18:12.770Z,60.88
2023-03-21T04:24:15.487Z,58.17
2023-03-21T04:30:20.195Z,61.92
2023-03-21T04:36:26.525Z,52.40
2023-03-21T04:42:28.600Z,57.30
2023-03-21T04:48:30.620Z,50.50
2023-03-21T04:54:32.539Z,46.70
2023-03-21T05:00:38.458Z,54.25
2023-03-21T05:06:42.739Z,48.20
2023-03-21T05:12:45.281Z,48.55
2023-03-21T05:18:50.753Z,49.83
2023-03-21T05:24:55.404Z,55.03
2023-03-21T05:30:57.415Z,52.05
2023-03-21T05:36:59.512Z,43.10
2023-03-21T05:43:01.317Z,40.08
2023-03-21T05:49:03.318Z,43.85
2023-03-21T05:55:05.594Z,47.08
2023-03-21T06:01:07.969Z,43.00
2023-03-21T06:07:09.999Z,34.78
2023-03-21T06:13:11.958Z,30.80
2023-03-21T06:19:14.195Z,39.58
2023-03-21T06:25:16.862Z,34.30
2023-03-21T06:31:25.393Z,33.58
2023-03-21T06:37:27.172Z,35.33
2023-03-21T06:43:29.102Z,34.08
2023-03-21T06:49:31.574Z,31.50
2023-03-21T06:55:33.490Z,30.08
2023-03-21T07:01:37.737Z,29.33
2023-03-21T07:07:40.149Z,29.70
2023-03-21T07:13:42.107Z,26.73
2023-03-21T07:19:44.875Z,20.00
2023-03-21T07:25:48.982Z,21.38
2023-03-21T07:31:51.053Z,24.38
2023-03-21T07:37:52.851Z,21.58
2023-03-21T07:43:54.681Z,26.48
2023-03-21T07:49:56.615Z,22.23
2023-03-21T07:55:58.755Z,24.85
2023-03-21T08:02:01.848Z,17.90
2023-03-21T08:08:05.056Z,26.92
2023-03-21T08:14:06.939Z,20.52
2023-03-21T08:20:12.117Z,27.13
2023-03-21T08:26:18.518Z,22.92
2023-03-21T08:32:20.274Z,24.92
2023-03-21T08:38:22.113Z,19.40
2023-03-21T08:44:25.383Z,23.45
2023-03-21T08:50:29.581Z,20.92
2023-03-21T08:56:32.100Z,26.08
2023-03-21T09:02:34.408Z,21.58
2023-03-21T09:08:36.277Z,20.85
2023-03-21T09:14:38.354Z,20.77
2023-03-21T09:20:40.543Z,21.10
2023-03-21T09:26:44.192Z,24.58
2023-03-21T09:32:49.569Z,22.43
2023-03-21T09:38:52.237Z,24.13
2023-03-21T09:45:06.531Z,18.38
2023-03-21T09:51:15.860Z,21.48
2023-03-21T09:57:32.654Z,23.38
2023-03-21T10:03:35.510Z,28.75
2023-03-21T10:09:41.196Z,27.67
2023-03-21T10:15:43.183Z,30.02
2023-03-21T10:22:00.325Z,21.88
2023-03-21T10:28:05.620Z,25.17
2023-03-21T10:34:17.762Z,24.80
2023-03-21T10:40:20.081Z,25.33
2023-03-21T10:46:23.730Z,21.65
2023-03-21T10:52:30.200Z,20.47
2023-03-21T10:58:36.236Z,16.48
2023-03-21T11:04:39.297Z,20.50
2023-03-21T11:11:06.542Z,20.58
2023-03-21T11:17:30.020Z,18.02
2023-03-21T11:23:35.559Z,25.08
2023-03-21T11:29:45.760Z,16.98
2023-03-21T11:36:03.421Z,20.67
2023-03-21T11:42:07.254Z,17.75
2023-03-21T11:48:14.553Z,16.30
2023-03-21T11:54:19.909Z,20.13
2023-03-21T12:00:29.001Z,17.55
2023-03-21T12:06:52.393Z,17.85
2023-03-21T12:13:06.199Z,17.50
2023-03-21T12:19:29.588Z,16.13
2023-03-21T12:25:39.916Z,15.07
2023-03-21T12:32:02.189Z,16.00
2023-03-21T12:38:27.370Z,20.10
2023-03-21T12:44:34.086Z,19.73
2023-03-21T12:50:38.810Z,16.75
2023-03-21T12:57:06.726Z,24.02
2023-03-21T13:03:30.537Z,15.70
2023-03-21T13:09:42.036Z,17.45
2023-03-21T13:15:57.920Z,17.73
2023-03-21T13:22:19.547Z,14.48
2023-03-21T13:28:34.209Z,16.00
2023-03-21T13:34:38.734Z,14.32
2023-03-21T13:46:54.399Z,14.43
2023-03-21T13:53:19.403Z,15.32
2023-03-21T14:05:41.054Z,12.63
2023-03-21T14:11:46.797Z,14.20
2023-03-21T14:17:55.766Z,12.15
2023-03-21T14:24:03.694Z,14.68
2023-03-21T14:30:06.523Z,12.48
2023-03-21T14:36:15.617Z,10.75
2023-03-21T14:42:17.857Z,9.90
2023-03-21T14:48:28.472Z,11.32
2023-03-21T14:54:31.398Z,12.15
2023-03-21T15:00:35.622Z,8.68
2023-03-21T15:07:04.982Z,9.77
2023-03-21T15:13:19.543Z,10.00
2023-03-21T15:25:32.954Z,8.10
2023-03-21T15:31:36.761Z,8.50
2023-03-21T15:37:38.769Z,10.15
2023-03-21T15:43:40.981Z,5.35
2023-03-21T15:49:42.753Z,7.90
2023-03-21T15:55:49.864Z,6.63
2023-03-21T16:01:52.504Z,13.07
2023-03-21T16:07:58.415Z,6.03
2023-03-21T16:14:00.517Z,8.43
2023-03-21T16:20:02.421Z,7.78
2023-03-21T16:26:05.472Z,7.32
2023-03-21T16:32:15.663Z,6.22
2023-03-21T16:38:17.798Z,8.32
2023-03-21T16:44:20.567Z,6.40
2023-03-21T16:50:42.442Z,5.55
2023-03-21T16:56:51.846Z,6.25
2023-03-21T17:02:55.663Z,5.63
2023-03-21T17:08:58.866Z,6.03
2023-03-21T17:15:00.655Z,9.10
2023-03-21T17:21:02.954Z,5.60
2023-03-21T17:27:07.956Z,5.45
2023-03-21T17:33:09.892Z,5.38
2023-03-21T17:39:18.674Z,5.05
2023-03-21T17:45:21.938Z,5.65
2023-03-21T17:51:26.205Z,6.43
2023-03-21T17:57:28.103Z,7.95
2023-03-21T18:03:29.917Z,4.63
2023-03-21T18:09:31.965Z,5.45
2023-03-21T18:15:35.947Z,8.63
2023-03-21T18:21:45.870Z,6.30
2023-03-21T18:28:09.429Z,4.53
2023-03-21T18:34:09.683Z,5.65
2023-03-21T18:40:12.162Z,4.15
2023-03-21T18:46:15.775Z,5.38
2023-03-21T18:52:17.642Z,6.27
2023-03-21T18:58:19.507Z,7.15
2023-03-21T19:04:29.383Z,5.65
2023-03-21T19:10:32.164Z,6.90
2023-03-21T19:16:48.681Z,7.10
2023-03-21T19:22:57.197Z,8.18
2023-03-21T19:28:59.019Z,6.38
2023-03-21T19:35:01.218Z,5.97
2023-03-21T19:41:03.942Z,6.25
2023-03-21T19:47:06.573Z,6.45
2023-03-21T19:53:08.606Z,4.75
2023-03-21T19:59:10.583Z,6.78
2023-03-21T20:05:13.775Z,10.15
2023-03-21T20:11:15.758Z,8.20
2023-03-21T20:17:17.598Z,10.02
2023-03-21T20:23:20.343Z,6.88
2023-03-21T20:42:07.233Z,5.90
2023-03-21T20:48:09.336Z,8.52
2023-03-21T20:54:11.423Z,6.85
2023-03-21T21:00:15.233Z,7.43
2023-03-21T21:06:20.090Z,6.90
2023-03-21T21:12:27.415Z,11.20
2023-03-21T21:18:30.356Z,8.23
2023-03-21T21:24:32.180Z,8.32
2023-03-21T21:30:38.326Z,8.30
2023-03-21T21:36:40.361Z,8.48
2023-03-21T21:42:43.529Z,8.90
2023-03-21T21:48:45.486Z,7.20
2023-03-21T21:54:48.713Z,8.73
2023-03-21T22:00:51.914Z,7.22
2023-03-21T22:06:55.087Z,8.93
2023-03-21T22:12:56.900Z,9.00
2023-03-21T22:18:58.654Z,11.10
2023-03-21T22:25:00.464Z,7.97
2023-03-21T22:31:14.588Z,8.93
2023-03-21T22:37:16.529Z,8.02
2023-03-21T22:43:18.446Z,11.88
2023-03-21T22:49:20.539Z,13.32
2023-03-21T22:55:22.513Z,11.52
2023-03-21T23:01:24.629Z,8.38
2023-03-21T23:07:26.676Z,9.07
2023-03-21T23:13:28.862Z,10.45
2023-03-21T23:19:31.369Z,8.48
2023-03-21T23:25:33.859Z,9.38
2023-03-21T23:31:36.482Z,9.38
2023-03-21T23:37:42.327Z,12.05
2023-03-21T23:43:44.308Z,8.50
2023-03-21T23:49:49.171Z,9.73
2023-03-21T23:55:58.404Z,9.35
